sensor_id;sensor_type;location;lat;lon;timestamp;P1;durP1;ratioP1;P2;durP2;ratioP2
27670;SDS011;15077;49.704;9.908;2023-03-14T00:00:59;0.77;;;0.43;;
27670;SDS011;15077;49.704;9.908;2023-03-14T00:03:33;1.10;;;0.40;;
27670;SDS011;15077;49.704;9.908;2023-03-14T00:06:01;0.60;;;0.30;;
27670;SDS011;15077;49.704;9.908;2023-03-14T00:08:29;0.50;;;0.30;;
27670;SDS011;15077;49.704;9.908;2023-03-14T00:10:55;0.50;;;0.30;;
27670;SDS011;15077;49.704;9.908;2023-03-14T00:13:22;0.50;;;0.40;;
27670;SDS011;15077;49.704;9.908;2023-03-14T00:15:49;0.80;;;0.40;;
27670;SDS011;15077;49.704;9.908;2023-03-14T00:18:15;0.50;;;0.30;;
27670;SDS011;15077;49.704;9.908;2023-03-14T00:20:41;1.90;;;0.40;;
27670;SDS011;15077;49.704;9.908;2023-03-14T00:23:06;1.60;;;0.35;;
27670;SDS011;15077;49.704;9.908;2023-03-14T00:25:32;0.93;;;0.40;;
27670;SDS011;15077;49.704;9.908;2023-03-14T00:27:59;1.10;;;0.40;;
27670;SDS011;15077;49.704;9.908;2023-03-14T00:30:25;1.02;;;0.40;;
27670;SDS011;15077;49.704;9.908;2023-03-14T00:32:50;1.15;;;0.47;;
27670;SDS011;15077;49.704;9.908;2023-03-14T00:35:16;0.63;;;0.40;;
27670;SDS011;15077;49.704;9.908;2023-03-14T00:37:42;0.73;;;0.45;;
27670;SDS011;15077;49.704;9.908;2023-03-14T00:40:08;1.02;;;0.50;;
27670;SDS011;15077;49.704;9.908;2023-03-14T00:42:34;1.55;;;0.50;;
27670;SDS011;15077;49.704;9.908;2023-03-14T00:45:00;2.17;;;0.63;;
27670;SDS011;15077;49.704;9.908;2023-03-14T00:47:26;0.60;;;0.30;;
27670;SDS011;15077;49.704;9.908;2023-03-14T00:49:52;0.57;;;0.43;;
27670;SDS011;15077;49.704;9.908;2023-03-14T00:52:17;0.70;;;0.30;;
27670;SDS011;15077;49.704;9.908;2023-03-14T00:54:43;0.93;;;0.40;;
27670;SDS011;15077;49.704;9.908;2023-03-14T00:57:09;0.90;;;0.40;;
27670;SDS011;15077;49.704;9.908;2023-03-14T00:59:35;0.85;;;0.40;;
27670;SDS011;15077;49.704;9.908;2023-03-14T01:02:01;0.73;;;0.30;;
27670;SDS011;15077;49.704;9.908;2023-03-14T01:04:26;0.98;;;0.30;;
27670;SDS011;15077;49.704;9.908;2023-03-14T01:06:52;1.17;;;0.60;;
27670;SDS011;15077;49.704;9.908;2023-03-14T01:09:18;0.60;;;0.40;;
27670;SDS011;15077;49.704;9.908;2023-03-14T01:11:44;0.30;;;0.30;;
27670;SDS011;15077;49.704;9.908;2023-03-14T01:14:11;2.55;;;0.50;;
27670;SDS011;15077;49.704;9.908;2023-03-14T01:16:38;0.63;;;0.30;;
27670;SDS011;15077;49.704;9.908;2023-03-14T01:19:04;1.85;;;0.40;;
27670;SDS011;15077;49.704;9.908;2023-03-14T01:21:34;1.20;;;0.40;;
27670;SDS011;15077;49.704;9.908;2023-03-14T01:24:00;1.42;;;0.52;;
27670;SDS011;15077;49.704;9.908;2023-03-14T01:26:29;1.55;;;0.47;;
27670;SDS011;15077;49.704;9.908;2023-03-14T01:28:58;1.10;;;0.40;;
27670;SDS011;15077;49.704;9.908;2023-03-14T01:31:26;1.20;;;0.40;;
27670;SDS011;15077;49.704;9.908;2023-03-14T01:33:54;2.05;;;0.32;;
27670;SDS011;15077;49.704;9.908;2023-03-14T01:36:20;1.05;;;0.50;;
27670;SDS011;15077;49.704;9.908;2023-03-14T01:38:46;0.85;;;0.40;;
27670;SDS011;15077;49.704;9.908;2023-03-14T01:41:17;0.82;;;0.30;;
27670;SDS011;15077;49.704;9.908;2023-03-14T01:43:46;2.75;;;0.32;;
27670;SDS011;15077;49.704;9.908;2023-03-14T01:48:55;1.00;;;0.40;;
27670;SDS011;15077;49.704;9.908;2023-03-14T01:57:04;0.98;;;0.47;;
27670;SDS011;15077;49.704;9.908;2023-03-14T01:59:59;1.85;;;0.38;;
27670;SDS011;15077;49.704;9.908;2023-03-14T02:02:35;2.00;;;0.60;;
27670;SDS011;15077;49.704;9.908;2023-03-14T02:05:04;2.53;;;0.47;;
27670;SDS011;15077;49.704;9.908;2023-03-14T02:07:33;2.58;;;0.40;;
27670;SDS011;15077;49.704;9.908;2023-03-14T02:10:18;0.90;;;0.60;;
27670;SDS011;15077;49.704;9.908;2023-03-14T02:12:50;1.85;;;0.38;;
27670;SDS011;15077;49.704;9.908;2023-03-14T02:15:20;1.23;;;0.75;;
27670;SDS011;15077;49.704;9.908;2023-03-14T02:17:48;0.98;;;0.47;;
27670;SDS011;15077;49.704;9.908;2023-03-14T02:20:24;1.80;;;0.45;;
27670;SDS011;15077;49.704;9.908;2023-03-14T02:23:20;2.03;;;0.95;;
27670;SDS011;15077;49.704;9.908;2023-03-14T02:26:13;1.73;;;0.35;;
27670;SDS011;15077;49.704;9.908;2023-03-14T02:28:47;1.30;;;0.70;;
27670;SDS011;15077;49.704;9.908;2023-03-14T02:31:15;3.13;;;0.73;;
27670;SDS011;15077;49.704;9.908;2023-03-14T02:33:41;0.98;;;0.40;;
27670;SDS011;15077;49.704;9.908;2023-03-14T02:36:11;0.85;;;0.50;;
27670;SDS011;15077;49.704;9.908;2023-03-14T02:38:55;0.50;;;0.30;;
27670;SDS011;15077;49.704;9.908;2023-03-14T02:41:35;1.55;;;0.40;;
27670;SDS011;15077;49.704;9.908;2023-03-14T02:44:01;2.40;;;0.40;;
27670;SDS011;15077;49.704;9.908;2023-03-14T02:46:27;1.45;;;0.30;;
27670;SDS011;15077;49.704;9.908;2023-03-14T02:49:02;0.93;;;0.50;;
27670;SDS011;15077;49.704;9.908;2023-03-14T02:51:35;0.88;;;0.30;;
27670;SDS011;15077;49.704;9.908;2023-03-14T02:54:04;0.65;;;0.40;;
27670;SDS011;15077;49.704;9.908;2023-03-14T02:56:30;0.52;;;0.40;;
27670;SDS011;15077;49.704;9.908;2023-03-14T02:58:57;1.58;;;0.40;;
27670;SDS011;15077;49.704;9.908;2023-03-14T03:01:24;0.68;;;0.30;;
27670;SDS011;15077;49.704;9.908;2023-03-14T03:03:52;0.88;;;0.40;;
27670;SDS011;15077;49.704;9.908;2023-03-14T03:06:19;2.30;;;0.55;;
27670;SDS011;15077;49.704;9.908;2023-03-14T03:08:47;2.20;;;0.50;;
27670;SDS011;15077;49.704;9.908;2023-03-14T03:11:13;0.95;;;0.40;;
27670;SDS011;15077;49.704;9.908;2023-03-14T03:13:40;3.42;;;0.50;;
27670;SDS011;15077;49.704;9.908;2023-03-14T03:16:07;1.42;;;0.40;;
27670;SDS011;15077;49.704;9.908;2023-03-14T03:18:33;1.67;;;0.30;;
27670;SDS011;15077;49.704;9.908;2023-03-14T03:21:01;1.02;;;0.43;;
27670;SDS011;15077;49.704;9.908;2023-03-14T03:23:30;0.88;;;0.30;;
27670;SDS011;15077;49.704;9.908;2023-03-14T03:25:56;0.50;;;0.38;;
27670;SDS011;15077;49.704;9.908;2023-03-14T03:28:22;1.77;;;0.40;;
27670;SDS011;15077;49.704;9.908;2023-03-14T03:30:48;0.75;;;0.30;;
27670;SDS011;15077;49.704;9.908;2023-03-14T03:33:15;0.40;;;0.30;;
27670;SDS011;15077;49.704;9.908;2023-03-14T03:35:46;2.33;;;0.38;;
27670;SDS011;15077;49.704;9.908;2023-03-14T03:38:16;1.52;;;0.43;;
27670;SDS011;15077;49.704;9.908;2023-03-14T03:40:42;2.50;;;0.50;;
27670;SDS011;15077;49.704;9.908;2023-03-14T03:43:10;1.60;;;0.52;;
27670;SDS011;15077;49.704;9.908;2023-03-14T03:45:37;1.65;;;0.73;;
27670;SDS011;15077;49.704;9.908;2023-03-14T03:48:05;1.98;;;0.80;;
27670;SDS011;15077;49.704;9.908;2023-03-14T03:50:31;0.70;;;0.40;;
27670;SDS011;15077;49.704;9.908;2023-03-14T03:52:57;1.25;;;0.35;;
27670;SDS011;15077;49.704;9.908;2023-03-14T03:55:23;3.53;;;0.50;;
27670;SDS011;15077;49.704;9.908;2023-03-14T03:57:53;2.60;;;0.40;;
27670;SDS011;15077;49.704;9.908;2023-03-14T04:00:21;1.00;;;0.50;;
27670;SDS011;15077;49.704;9.908;2023-03-14T04:02:47;4.30;;;0.75;;
27670;SDS011;15077;49.704;9.908;2023-03-14T04:05:13;3.65;;;0.60;;
27670;SDS011;15077;49.704;9.908;2023-03-14T04:07:41;1.55;;;0.50;;
27670;SDS011;15077;49.704;9.908;2023-03-14T04:10:12;2.75;;;0.60;;
27670;SDS011;15077;49.704;9.908;2023-03-14T04:12:39;0.85;;;0.40;;
27670;SDS011;15077;49.704;9.908;2023-03-14T04:15:06;1.60;;;0.40;;
27670;SDS011;15077;49.704;9.908;2023-03-14T04:17:34;1.80;;;0.47;;
27670;SDS011;15077;49.704;9.908;2023-03-14T04:19:59;1.50;;;0.60;;
27670;SDS011;15077;49.704;9.908;2023-03-14T04:22:26;0.73;;;0.40;;
27670;SDS011;15077;49.704;9.908;2023-03-14T04:24:54;2.72;;;0.60;;
27670;SDS011;15077;49.704;9.908;2023-03-14T04:27:22;1.70;;;0.57;;
27670;SDS011;15077;49.704;9.908;2023-03-14T04:29:49;2.65;;;0.38;;
27670;SDS011;15077;49.704;9.908;2023-03-14T04:32:14;1.58;;;0.40;;
27670;SDS011;15077;49.704;9.908;2023-03-14T04:34:40;2.15;;;0.73;;
27670;SDS011;15077;49.704;9.908;2023-03-14T04:37:08;3.45;;;2.38;;
27670;SDS011;15077;49.704;9.908;2023-03-14T04:39:35;4.47;;;2.30;;
27670;SDS011;15077;49.704;9.908;2023-03-14T04:42:01;8.23;;;6.45;;
27670;SDS011;15077;49.704;9.908;2023-03-14T04:44:27;4.13;;;3.72;;
27670;SDS011;15077;49.704;9.908;2023-03-14T04:46:53;3.45;;;3.05;;
27670;SDS011;15077;49.704;9.908;2023-03-14T04:49:18;3.65;;;3.33;;
27670;SDS011;15077;49.704;9.908;2023-03-14T04:51:44;2.75;;;2.55;;
27670;SDS011;15077;49.704;9.908;2023-03-14T04:54:10;1.20;;;1.00;;
27670;SDS011;15077;49.704;9.908;2023-03-14T04:56:36;3.08;;;1.08;;
27670;SDS011;15077;49.704;9.908;2023-03-14T04:59:02;3.25;;;0.90;;
27670;SDS011;15077;49.704;9.908;2023-03-14T05:01:29;0.90;;;0.52;;
27670;SDS011;15077;49.704;9.908;2023-03-14T05:03:55;2.35;;;0.65;;
27670;SDS011;15077;49.704;9.908;2023-03-14T05:06:21;15.07;;;9.63;;
27670;SDS011;15077;49.704;9.908;2023-03-14T05:08:47;45.03;;;23.38;;
27670;SDS011;15077;49.704;9.908;2023-03-14T05:11:13;23.80;;;14.73;;
27670;SDS011;15077;49.704;9.908;2023-03-14T05:13:39;5.72;;;3.30;;
27670;SDS011;15077;49.704;9.908;2023-03-14T05:16:06;9.25;;;6.25;;
27670;SDS011;15077;49.704;9.908;2023-03-14T05:18:34;2.25;;;1.70;;
27670;SDS011;15077;49.704;9.908;2023-03-14T05:21:00;2.40;;;0.98;;
27670;SDS011;15077;49.704;9.908;2023-03-14T05:23:26;1.17;;;0.73;;
27670;SDS011;15077;49.704;9.908;2023-03-14T05:25:52;1.85;;;1.20;;
27670;SDS011;15077;49.704;9.908;2023-03-14T05:28:18;2.80;;;1.27;;
27670;SDS011;15077;49.704;9.908;2023-03-14T05:30:44;2.38;;;1.02;;
27670;SDS011;15077;49.704;9.908;2023-03-14T05:33:10;2.45;;;1.45;;
27670;SDS011;15077;49.704;9.908;2023-03-14T05:35:35;5.85;;;3.25;;
27670;SDS011;15077;49.704;9.908;2023-03-14T05:38:01;5.68;;;2.60;;
27670;SDS011;15077;49.704;9.908;2023-03-14T05:40:27;7.38;;;3.70;;
27670;SDS011;15077;49.704;9.908;2023-03-14T05:42:52;2.35;;;1.25;;
27670;SDS011;15077;49.704;9.908;2023-03-14T05:45:18;5.22;;;3.58;;
27670;SDS011;15077;49.704;9.908;2023-03-14T05:47:44;5.70;;;4.13;;
27670;SDS011;15077;49.704;9.908;2023-03-14T05:50:10;7.68;;;4.82;;
27670;SDS011;15077;49.704;9.908;2023-03-14T05:52:36;18.85;;;10.77;;
27670;SDS011;15077;49.704;9.908;2023-03-14T05:55:02;35.05;;;18.77;;
27670;SDS011;15077;49.704;9.908;2023-03-14T05:57:28;11.55;;;5.65;;
27670;SDS011;15077;49.704;9.908;2023-03-14T05:59:53;6.57;;;3.85;;
27670;SDS011;15077;49.704;9.908;2023-03-14T06:02:19;11.18;;;6.07;;
27670;SDS011;15077;49.704;9.908;2023-03-14T06:04:45;10.32;;;5.28;;
27670;SDS011;15077;49.704;9.908;2023-03-14T06:07:11;22.55;;;12.45;;
27670;SDS011;15077;49.704;9.908;2023-03-14T06:09:36;9.80;;;5.15;;
27670;SDS011;15077;49.704;9.908;2023-03-14T06:12:03;4.32;;;2.33;;
27670;SDS011;15077;49.704;9.908;2023-03-14T06:14:29;3.05;;;1.30;;
27670;SDS011;15077;49.704;9.908;2023-03-14T06:16:54;2.10;;;1.13;;
27670;SDS011;15077;49.704;9.908;2023-03-14T06:19:20;5.82;;;5.22;;
27670;SDS011;15077;49.704;9.908;2023-03-14T06:21:46;13.30;;;12.10;;
27670;SDS011;15077;49.704;9.908;2023-03-14T06:24:12;6.80;;;6.25;;
27670;SDS011;15077;49.704;9.908;2023-03-14T06:26:38;4.78;;;3.00;;
27670;SDS011;15077;49.704;9.908;2023-03-14T06:29:03;2.53;;;1.40;;
27670;SDS011;15077;49.704;9.908;2023-03-14T06:31:30;1.13;;;0.70;;
27670;SDS011;15077;49.704;9.908;2023-03-14T06:33:57;1.80;;;0.80;;
27670;SDS011;15077;49.704;9.908;2023-03-14T06:36:23;3.33;;;0.60;;
27670;SDS011;15077;49.704;9.908;2023-03-14T06:38:49;1.55;;;0.50;;
27670;SDS011;15077;49.704;9.908;2023-03-14T06:41:15;1.27;;;0.80;;
27670;SDS011;15077;49.704;9.908;2023-03-14T06:43:41;2.17;;;0.60;;
27670;SDS011;15077;49.704;9.908;2023-03-14T06:46:07;2.03;;;0.90;;
27670;SDS011;15077;49.704;9.908;2023-03-14T06:48:33;1.00;;;0.70;;
27670;SDS011;15077;49.704;9.908;2023-03-14T06:50:58;2.25;;;0.77;;
27670;SDS011;15077;49.704;9.908;2023-03-14T06:53:24;2.13;;;0.57;;
27670;SDS011;15077;49.704;9.908;2023-03-14T06:55:50;3.67;;;0.90;;
27670;SDS011;15077;49.704;9.908;2023-03-14T06:58:16;3.03;;;0.73;;
27670;SDS011;15077;49.704;9.908;2023-03-14T07:00:42;2.35;;;0.45;;
27670;SDS011;15077;49.704;9.908;2023-03-14T07:03:08;1.55;;;0.60;;
27670;SDS011;15077;49.704;9.908;2023-03-14T07:05:35;4.55;;;0.93;;
27670;SDS011;15077;49.704;9.908;2023-03-14T07:08:01;3.83;;;0.70;;
27670;SDS011;15077;49.704;9.908;2023-03-14T07:10:26;4.28;;;0.70;;
27670;SDS011;15077;49.704;9.908;2023-03-14T07:12:52;2.05;;;0.65;;
27670;SDS011;15077;49.704;9.908;2023-03-14T07:15:18;2.05;;;0.82;;
27670;SDS011;15077;49.704;9.908;2023-03-14T07:17:45;4.45;;;0.93;;
27670;SDS011;15077;49.704;9.908;2023-03-14T07:20:13;2.15;;;0.65;;
27670;SDS011;15077;49.704;9.908;2023-03-14T07:22:39;2.38;;;0.60;;
27670;SDS011;15077;49.704;9.908;2023-03-14T07:25:05;2.65;;;0.65;;
27670;SDS011;15077;49.704;9.908;2023-03-14T07:27:31;2.65;;;1.00;;
27670;SDS011;15077;49.704;9.908;2023-03-14T07:29:56;4.35;;;1.33;;
27670;SDS011;15077;49.704;9.908;2023-03-14T07:32:22;2.95;;;0.80;;
27670;SDS011;15077;49.704;9.908;2023-03-14T07:34:48;4.72;;;0.90;;
27670;SDS011;15077;49.704;9.908;2023-03-14T07:37:14;1.48;;;0.70;;
27670;SDS011;15077;49.704;9.908;2023-03-14T07:39:40;1.92;;;0.80;;
27670;SDS011;15077;49.704;9.908;2023-03-14T07:42:05;1.88;;;0.80;;
27670;SDS011;15077;49.704;9.908;2023-03-14T07:44:31;3.25;;;1.08;;
27670;SDS011;15077;49.704;9.908;2023-03-14T07:46:57;1.27;;;0.50;;
27670;SDS011;15077;49.704;9.908;2023-03-14T07:49:23;3.70;;;0.93;;
27670;SDS011;15077;49.704;9.908;2023-03-14T07:51:52;2.67;;;0.82;;
27670;SDS011;15077;49.704;9.908;2023-03-14T07:54:17;2.47;;;0.60;;
27670;SDS011;15077;49.704;9.908;2023-03-14T07:56:43;1.52;;;0.73;;
27670;SDS011;15077;49.704;9.908;2023-03-14T07:59:09;1.95;;;1.10;;
27670;SDS011;15077;49.704;9.908;2023-03-14T08:01:35;5.43;;;2.88;;
27670;SDS011;15077;49.704;9.908;2023-03-14T08:04:01;4.85;;;1.95;;
27670;SDS011;15077;49.704;9.908;2023-03-14T08:06:27;3.97;;;2.80;;
27670;SDS011;15077;49.704;9.908;2023-03-14T08:08:53;4.57;;;2.17;;
27670;SDS011;15077;49.704;9.908;2023-03-14T08:11:18;4.32;;;2.35;;
27670;SDS011;15077;49.704;9.908;2023-03-14T08:13:44;3.60;;;1.65;;
27670;SDS011;15077;49.704;9.908;2023-03-14T08:16:17;5.47;;;1.33;;
27670;SDS011;15077;49.704;9.908;2023-03-14T08:18:44;5.05;;;2.22;;
27670;SDS011;15077;49.704;9.908;2023-03-14T08:21:13;5.78;;;2.10;;
27670;SDS011;15077;49.704;9.908;2023-03-14T08:23:39;3.20;;;1.63;;
27670;SDS011;15077;49.704;9.908;2023-03-14T08:26:05;2.13;;;0.98;;
27670;SDS011;15077;49.704;9.908;2023-03-14T08:28:32;2.22;;;1.10;;
27670;SDS011;15077;49.704;9.908;2023-03-14T08:30:58;1.25;;;0.43;;
27670;SDS011;15077;49.704;9.908;2023-03-14T08:33:26;1.30;;;0.63;;
27670;SDS011;15077;49.704;9.908;2023-03-14T08:35:56;2.20;;;1.55;;
27670;SDS011;15077;49.704;9.908;2023-03-14T08:38:24;3.05;;;1.40;;
27670;SDS011;15077;49.704;9.908;2023-03-14T08:40:57;3.47;;;0.93;;
27670;SDS011;15077;49.704;9.908;2023-03-14T08:43:25;2.13;;;1.25;;
27670;SDS011;15077;49.704;9.908;2023-03-14T08:45:52;3.55;;;1.40;;
27670;SDS011;15077;49.704;9.908;2023-03-14T08:48:18;3.75;;;1.20;;
27670;SDS011;15077;49.704;9.908;2023-03-14T08:50:44;4.13;;;1.10;;
27670;SDS011;15077;49.704;9.908;2023-03-14T08:53:11;2.55;;;1.50;;
27670;SDS011;15077;49.704;9.908;2023-03-14T08:55:37;2.67;;;1.38;;
27670;SDS011;15077;49.704;9.908;2023-03-14T08:58:02;1.30;;;0.85;;
27670;SDS011;15077;49.704;9.908;2023-03-14T09:00:28;2.53;;;0.70;;
27670;SDS011;15077;49.704;9.908;2023-03-14T09:02:56;2.03;;;0.60;;
27670;SDS011;15077;49.704;9.908;2023-03-14T09:05:22;2.25;;;0.70;;
27670;SDS011;15077;49.704;9.908;2023-03-14T09:07:48;1.60;;;0.60;;
27670;SDS011;15077;49.704;9.908;2023-03-14T09:10:14;1.30;;;0.40;;
27670;SDS011;15077;49.704;9.908;2023-03-14T09:12:39;1.98;;;0.80;;
27670;SDS011;15077;49.704;9.908;2023-03-14T09:15:05;1.70;;;0.40;;
27670;SDS011;15077;49.704;9.908;2023-03-14T09:17:32;1.38;;;0.30;;
27670;SDS011;15077;49.704;9.908;2023-03-14T09:19:58;2.50;;;0.40;;
27670;SDS011;15077;49.704;9.908;2023-03-14T09:22:23;1.15;;;0.43;;
27670;SDS011;15077;49.704;9.908;2023-03-14T09:24:49;2.80;;;1.17;;
27670;SDS011;15077;49.704;9.908;2023-03-14T09:27:15;2.70;;;1.05;;
27670;SDS011;15077;49.704;9.908;2023-03-14T09:29:41;1.75;;;0.70;;
27670;SDS011;15077;49.704;9.908;2023-03-14T09:32:06;1.73;;;0.77;;
27670;SDS011;15077;49.704;9.908;2023-03-14T09:34:32;7.47;;;2.45;;
27670;SDS011;15077;49.704;9.908;2023-03-14T09:36:58;3.42;;;1.48;;
27670;SDS011;15077;49.704;9.908;2023-03-14T09:39:24;2.67;;;1.20;;
27670;SDS011;15077;49.704;9.908;2023-03-14T09:41:50;7.97;;;2.95;;
27670;SDS011;15077;49.704;9.908;2023-03-14T09:44:32;3.88;;;1.50;;
27670;SDS011;15077;49.704;9.908;2023-03-14T09:47:05;3.60;;;1.42;;
27670;SDS011;15077;49.704;9.908;2023-03-14T09:49:37;3.33;;;1.50;;
27670;SDS011;15077;49.704;9.908;2023-03-14T09:52:13;2.38;;;0.82;;
27670;SDS011;15077;49.704;9.908;2023-03-14T09:57:17;2.60;;;1.08;;
27670;SDS011;15077;49.704;9.908;2023-03-14T09:59:46;2.03;;;0.63;;
27670;SDS011;15077;49.704;9.908;2023-03-14T10:04:47;0.70;;;0.40;;
27670;SDS011;15077;49.704;9.908;2023-03-14T10:07:16;1.10;;;0.50;;
27670;SDS011;15077;49.704;9.908;2023-03-14T10:09:47;4.38;;;0.50;;
27670;SDS011;15077;49.704;9.908;2023-03-14T10:12:16;1.02;;;0.40;;
27670;SDS011;15077;49.704;9.908;2023-03-14T10:14:50;1.00;;;0.43;;
27670;SDS011;15077;49.704;9.908;2023-03-14T10:17:19;0.77;;;0.40;;
27670;SDS011;15077;49.704;9.908;2023-03-14T10:19:58;0.43;;;0.30;;
27670;SDS011;15077;49.704;9.908;2023-03-14T10:22:29;0.90;;;0.65;;
27670;SDS011;15077;49.704;9.908;2023-03-14T10:24:57;0.70;;;0.40;;
27670;SDS011;15077;49.704;9.908;2023-03-14T10:27:31;0.73;;;0.40;;
27670;SDS011;15077;49.704;9.908;2023-03-14T10:30:00;2.50;;;0.80;;
27670;SDS011;15077;49.704;9.908;2023-03-14T10:32:32;0.63;;;0.40;;
27670;SDS011;15077;49.704;9.908;2023-03-14T10:37:58;1.30;;;0.88;;
27670;SDS011;15077;49.704;9.908;2023-03-14T10:40:31;3.53;;;0.98;;
27670;SDS011;15077;49.704;9.908;2023-03-14T10:43:15;1.95;;;0.43;;
27670;SDS011;15077;49.704;9.908;2023-03-14T10:45:50;1.25;;;0.60;;
27670;SDS011;15077;49.704;9.908;2023-03-14T10:51:06;1.90;;;0.80;;
27670;SDS011;15077;49.704;9.908;2023-03-14T10:53:40;1.00;;;0.77;;
27670;SDS011;15077;49.704;9.908;2023-03-14T10:56:33;1.23;;;0.60;;
27670;SDS011;15077;49.704;9.908;2023-03-14T10:59:02;0.88;;;0.40;;
27670;SDS011;15077;49.704;9.908;2023-03-14T11:01:42;0.38;;;0.20;;
27670;SDS011;15077;49.704;9.908;2023-03-14T11:07:24;1.65;;;0.40;;
27670;SDS011;15077;49.704;9.908;2023-03-14T11:10:21;1.92;;;0.50;;
27670;SDS011;15077;49.704;9.908;2023-03-14T11:18:46;2.13;;;0.30;;
27670;SDS011;15077;49.704;9.908;2023-03-14T11:24:36;1.08;;;0.40;;
27670;SDS011;15077;49.704;9.908;2023-03-14T11:34:51;1.95;;;0.40;;
27670;SDS011;15077;49.704;9.908;2023-03-14T11:37:22;1.92;;;0.60;;
27670;SDS011;15077;49.704;9.908;2023-03-14T11:42:32;0.47;;;0.30;;
27670;SDS011;15077;49.704;9.908;2023-03-14T11:44:58;1.70;;;0.40;;
27670;SDS011;15077;49.704;9.908;2023-03-14T11:47:30;1.70;;;0.63;;
27670;SDS011;15077;49.704;9.908;2023-03-14T11:53:03;0.28;;;0.22;;
27670;SDS011;15077;49.704;9.908;2023-03-14T11:55:42;1.02;;;0.30;;
27670;SDS011;15077;49.704;9.908;2023-03-14T11:58:11;0.60;;;0.30;;
27670;SDS011;15077;49.704;9.908;2023-03-14T12:00:48;1.75;;;0.43;;
27670;SDS011;15077;49.704;9.908;2023-03-14T12:08:53;3.58;;;0.30;;
27670;SDS011;15077;49.704;9.908;2023-03-14T12:11:31;2.38;;;0.75;;
27670;SDS011;15077;49.704;9.908;2023-03-14T12:14:29;2.20;;;0.70;;
27670;SDS011;15077;49.704;9.908;2023-03-14T12:17:35;0.52;;;0.30;;
27670;SDS011;15077;49.704;9.908;2023-03-14T12:22:43;0.40;;;0.20;;
27670;SDS011;15077;49.704;9.908;2023-03-14T12:49:48;0.50;;;0.20;;
27670;SDS011;15077;49.704;9.908;2023-03-14T12:55:24;0.40;;;0.20;;
27670;SDS011;15077;49.704;9.908;2023-03-14T12:58:35;0.40;;;0.20;;
27670;SDS011;15077;49.704;9.908;2023-03-14T13:01:17;0.50;;;0.20;;
27670;SDS011;15077;49.704;9.908;2023-03-14T13:03:52;0.50;;;0.20;;
27670;SDS011;15077;49.704;9.908;2023-03-14T13:12:13;0.52;;;0.30;;
27670;SDS011;15077;49.704;9.908;2023-03-14T13:14:46;1.70;;;0.60;;
27670;SDS011;15077;49.704;9.908;2023-03-14T13:19:55;0.57;;;0.30;;
27670;SDS011;15077;49.704;9.908;2023-03-14T13:22:27;3.15;;;1.83;;
27670;SDS011;15077;49.704;9.908;2023-03-14T13:25:00;1.40;;;0.93;;
27670;SDS011;15077;49.704;9.908;2023-03-14T13:27:30;1.65;;;0.95;;
27670;SDS011;15077;49.704;9.908;2023-03-14T13:30:22;3.13;;;1.80;;
27670;SDS011;15077;49.704;9.908;2023-03-14T13:32:52;1.50;;;1.02;;
27670;SDS011;15077;49.704;9.908;2023-03-14T13:37:59;0.40;;;0.30;;
27670;SDS011;15077;49.704;9.908;2023-03-14T13:40:31;0.40;;;0.20;;
27670;SDS011;15077;49.704;9.908;2023-03-14T13:43:04;0.52;;;0.30;;
27670;SDS011;15077;49.704;9.908;2023-03-14T13:45:43;0.50;;;0.20;;
27670;SDS011;15077;49.704;9.908;2023-03-14T13:48:14;0.73;;;0.20;;
27670;SDS011;15077;49.704;9.908;2023-03-14T13:50:44;0.40;;;0.20;;
27670;SDS011;15077;49.704;9.908;2023-03-14T13:53:24;0.40;;;0.20;;
27670;SDS011;15077;49.704;9.908;2023-03-14T13:55:50;0.68;;;0.20;;
27670;SDS011;15077;49.704;9.908;2023-03-14T13:58:37;0.17;;;0.10;;
27670;SDS011;15077;49.704;9.908;2023-03-14T14:01:05;0.20;;;0.10;;
27670;SDS011;15077;49.704;9.908;2023-03-14T14:03:58;0.32;;;0.15;;
27670;SDS011;15077;49.704;9.908;2023-03-14T14:09:09;0.65;;;0.30;;
27670;SDS011;15077;49.704;9.908;2023-03-14T14:11:59;0.45;;;0.20;;
27670;SDS011;15077;49.704;9.908;2023-03-14T14:14:42;0.45;;;0.30;;
27670;SDS011;15077;49.704;9.908;2023-03-14T14:17:20;0.75;;;0.20;;
27670;SDS011;15077;49.704;9.908;2023-03-14T14:19:53;0.40;;;0.20;;
27670;SDS011;15077;49.704;9.908;2023-03-14T14:22:21;0.30;;;0.30;;
27670;SDS011;15077;49.704;9.908;2023-03-14T14:24:47;0.30;;;0.20;;
27670;SDS011;15077;49.704;9.908;2023-03-14T14:27:14;1.63;;;0.77;;
27670;SDS011;15077;49.704;9.908;2023-03-14T14:30:05;0.80;;;0.55;;
27670;SDS011;15077;49.704;9.908;2023-03-14T14:32:54;0.43;;;0.20;;
27670;SDS011;15077;49.704;9.908;2023-03-14T14:35:50;1.45;;;0.30;;
27670;SDS011;15077;49.704;9.908;2023-03-14T14:38:21;1.08;;;0.55;;
27670;SDS011;15077;49.704;9.908;2023-03-14T14:40:51;1.90;;;0.70;;
27670;SDS011;15077;49.704;9.908;2023-03-14T14:43:24;1.15;;;0.40;;
27670;SDS011;15077;49.704;9.908;2023-03-14T14:45:55;1.83;;;0.43;;
27670;SDS011;15077;49.704;9.908;2023-03-14T14:48:23;0.90;;;0.57;;
27670;SDS011;15077;49.704;9.908;2023-03-14T14:50:56;0.75;;;0.32;;
27670;SDS011;15077;49.704;9.908;2023-03-14T14:53:38;0.50;;;0.40;;
27670;SDS011;15077;49.704;9.908;2023-03-14T14:56:17;1.05;;;0.45;;
27670;SDS011;15077;49.704;9.908;2023-03-14T14:58:49;0.55;;;0.40;;
27670;SDS011;15077;49.704;9.908;2023-03-14T15:03:49;0.60;;;0.40;;
27670;SDS011;15077;49.704;9.908;2023-03-14T15:06:17;0.65;;;0.40;;
27670;SDS011;15077;49.704;9.908;2023-03-14T15:08:45;0.63;;;0.30;;
27670;SDS011;15077;49.704;9.908;2023-03-14T15:13:48;1.30;;;0.50;;
27670;SDS011;15077;49.704;9.908;2023-03-14T15:16:18;0.85;;;0.50;;
27670;SDS011;15077;49.704;9.908;2023-03-14T15:18:54;2.13;;;0.57;;
27670;SDS011;15077;49.704;9.908;2023-03-14T15:21:23;1.45;;;0.40;;
27670;SDS011;15077;49.704;9.908;2023-03-14T15:23:51;0.80;;;0.45;;
27670;SDS011;15077;49.704;9.908;2023-03-14T15:26:19;1.50;;;0.65;;
27670;SDS011;15077;49.704;9.908;2023-03-14T15:28:49;0.93;;;0.47;;
27670;SDS011;15077;49.704;9.908;2023-03-14T15:31:16;1.02;;;0.70;;
27670;SDS011;15077;49.704;9.908;2023-03-14T15:33:44;2.42;;;0.98;;
27670;SDS011;15077;49.704;9.908;2023-03-14T15:36:16;2.80;;;1.30;;
27670;SDS011;15077;49.704;9.908;2023-03-14T15:38:56;3.65;;;2.05;;
27670;SDS011;15077;49.704;9.908;2023-03-14T15:41:24;2.22;;;1.08;;
27670;SDS011;15077;49.704;9.908;2023-03-14T15:43:51;1.10;;;0.80;;
27670;SDS011;15077;49.704;9.908;2023-03-14T15:46:17;2.42;;;1.00;;
27670;SDS011;15077;49.704;9.908;2023-03-14T15:48:47;2.22;;;0.63;;
27670;SDS011;15077;49.704;9.908;2023-03-14T15:51:15;3.65;;;2.28;;
27670;SDS011;15077;49.704;9.908;2023-03-14T15:53:41;3.22;;;1.90;;
27670;SDS011;15077;49.704;9.908;2023-03-14T15:56:10;2.50;;;1.27;;
27670;SDS011;15077;49.704;9.908;2023-03-14T15:58:39;1.88;;;0.90;;
27670;SDS011;15077;49.704;9.908;2023-03-14T16:01:06;0.77;;;0.60;;
27670;SDS011;15077;49.704;9.908;2023-03-14T16:03:34;2.63;;;1.20;;
27670;SDS011;15077;49.704;9.908;2023-03-14T16:06:00;2.05;;;0.70;;
27670;SDS011;15077;49.704;9.908;2023-03-14T16:08:26;1.98;;;0.80;;
27670;SDS011;15077;49.704;9.908;2023-03-14T16:10:53;1.05;;;0.68;;
27670;SDS011;15077;49.704;9.908;2023-03-14T16:13:20;2.17;;;1.20;;
27670;SDS011;15077;49.704;9.908;2023-03-14T16:15:59;1.75;;;0.70;;
27670;SDS011;15077;49.704;9.908;2023-03-14T16:18:28;1.40;;;0.95;;
27670;SDS011;15077;49.704;9.908;2023-03-14T16:21:02;2.35;;;1.20;;
27670;SDS011;15077;49.704;9.908;2023-03-14T16:23:32;1.67;;;1.17;;
27670;SDS011;15077;49.704;9.908;2023-03-14T16:26:03;1.20;;;0.80;;
27670;SDS011;15077;49.704;9.908;2023-03-14T16:28:32;0.82;;;0.50;;
27670;SDS011;15077;49.704;9.908;2023-03-14T16:31:01;1.92;;;0.80;;
27670;SDS011;15077;49.704;9.908;2023-03-14T16:33:34;2.05;;;1.00;;
27670;SDS011;15077;49.704;9.908;2023-03-14T16:36:02;1.80;;;0.63;;
27670;SDS011;15077;49.704;9.908;2023-03-14T16:38:32;2.88;;;1.02;;
27670;SDS011;15077;49.704;9.908;2023-03-14T16:41:00;3.90;;;2.75;;